createdAt,value
2018-09-13T00:00:51.524Z,93.69
2018-09-13T00:01:51.755Z,94.64
2018-09-13T00:02:51.983Z,93.59
2018-09-13T00:03:52.214Z,94.17
2018-09-13T00:04:52.446Z,93.49
2018-09-13T00:05:52.736Z,94.17
2018-09-13T00:06:52.901Z,94.35
2018-09-13T00:07:53.128Z,94.07
2018-09-13T00:08:53.358Z,94.17
2018-09-13T00:09:53.612Z,94.17
2018-09-13T00:10:53.819Z,94.17
2018-09-13T00:11:54.046Z,93.21
2018-09-13T00:12:54.269Z,94.07
2018-09-13T00:13:54.500Z,94.26
2018-09-13T00:14:54.730Z,94.35
2018-09-13T00:15:54.959Z,93.98
2018-09-13T00:16:55.189Z,93.78
2018-09-13T00:17:55.418Z,93.98
2018-09-13T00:18:55.654Z,93.78
2018-09-13T00:19:55.872Z,94.07
2018-09-13T00:20:56.104Z,94.17
2018-09-13T00:21:56.335Z,94.35
2018-09-13T00:22:56.564Z,94.26
2018-09-13T00:23:56.795Z,93.78
2018-09-13T00:24:57.021Z,94.26
2018-09-13T00:25:57.251Z,94.17
2018-09-13T00:26:57.477Z,94.07
2018-09-13T00:27:57.703Z,94.26
2018-09-13T00:28:57.935Z,93.98
2018-09-13T00:29:58.161Z,94.17
2018-09-13T00:30:58.389Z,93.98
2018-09-13T00:31:58.614Z,93.49
2018-09-13T00:32:58.846Z,94.35
2018-09-13T00:33:59.072Z,94.17
2018-09-13T00:34:59.306Z,94.26
2018-09-13T00:35:59.528Z,94.07
2018-09-13T00:36:59.763Z,94.07
2018-09-13T00:37:59.985Z,94.07
2018-09-13T00:39:00.214Z,93.78
2018-09-13T00:40:00.442Z,93.74
2018-09-13T00:41:00.676Z,94.12
2018-09-13T00:42:00.900Z,94.12
2018-09-13T00:43:01.121Z,94.17
2018-09-13T00:44:01.384Z,94.35
2018-09-13T00:45:01.580Z,94.17
2018-09-13T00:46:01.810Z,93.98
2018-09-13T00:47:02.038Z,93.93
2018-09-13T00:48:02.267Z,93.93
2018-09-13T00:49:02.494Z,94.02
2018-09-13T00:50:02.723Z,93.74
2018-09-13T00:51:02.962Z,93.93
2018-09-13T00:52:03.183Z,93.74
2018-09-13T00:53:03.412Z,93.83
2018-09-13T00:54:03.639Z,94.02
2018-09-13T00:55:03.864Z,93.93
2018-09-13T00:56:04.089Z,94.02
2018-09-13T00:57:04.327Z,93.93
2018-09-13T00:58:04.560Z,93.93
2018-09-13T00:59:04.807Z,93.93
2018-09-13T01:00:05.023Z,94.02
2018-09-13T01:01:05.253Z,93.93
2018-09-13T01:02:05.473Z,93.93
2018-09-13T01:03:05.723Z,93.83
2018-09-13T01:04:05.926Z,93.83
2018-09-13T01:05:06.153Z,93.74
2018-09-13T01:06:06.381Z,93.64
2018-09-13T01:07:06.609Z,93.74
2018-09-13T01:08:06.841Z,93.93
2018-09-13T01:09:07.079Z,93.98
2018-09-13T01:10:07.291Z,94.02
2018-09-13T01:11:07.520Z,94.02
2018-09-13T01:12:07.747Z,93.78
2018-09-13T01:13:07.977Z,94.07
2018-09-13T01:14:09.143Z,94.17
2018-09-13T01:15:08.380Z,94.26
2018-09-13T01:16:08.610Z,93.98
2018-09-13T01:17:08.820Z,94.17
2018-09-13T01:18:09.048Z,94.26
2018-09-13T01:19:09.277Z,93.98
2018-09-13T01:20:09.507Z,93.98
2018-09-13T01:21:09.733Z,94.26
2018-09-13T01:22:09.962Z,94.07
2018-09-13T01:23:10.203Z,94.45
2018-09-13T01:24:10.424Z,93.49
2018-09-13T01:25:10.647Z,93.98
2018-09-13T01:26:10.875Z,94.35
2018-09-13T01:27:11.103Z,93.49
2018-09-13T01:28:11.333Z,93.30
2018-09-13T01:29:11.564Z,93.30
2018-09-13T01:30:11.791Z,93.59
2018-09-13T01:31:12.020Z,94.07
2018-09-13T01:32:12.249Z,93.69
2018-09-13T01:33:12.479Z,93.49
2018-09-13T01:34:12.708Z,94.07
2018-09-13T01:35:12.936Z,93.49
2018-09-13T01:36:13.161Z,93.49
2018-09-13T01:37:13.392Z,93.49
2018-09-13T01:38:13.620Z,93.59
2018-09-13T01:39:13.851Z,93.78
2018-09-13T01:40:14.077Z,94.17
2018-09-13T01:41:14.308Z,94.07
2018-09-13T01:42:14.535Z,93.69
2018-09-13T01:43:14.765Z,93.49
2018-09-13T01:44:14.995Z,93.30
2018-09-13T01:45:15.245Z,94.17
2018-09-13T01:46:15.473Z,94.26
2018-09-13T01:47:15.701Z,93.30
2018-09-13T01:48:15.928Z,93.49
2018-09-13T01:49:16.162Z,93.49
2018-09-13T01:50:16.389Z,94.07
2018-09-13T01:51:16.613Z,93.49
2018-09-13T01:52:16.846Z,93.49
2018-09-13T01:53:17.070Z,93.49
2018-09-13T01:54:17.306Z,93.40
2018-09-13T01:55:17.522Z,93.98
2018-09-13T01:56:17.757Z,93.49
2018-09-13T01:57:17.975Z,93.69
2018-09-13T01:58:18.207Z,93.49
2018-09-13T01:59:18.433Z,93.69
2018-09-13T02:00:18.652Z,93.49
2018-09-13T02:01:18.904Z,94.35
2018-09-13T02:02:19.128Z,93.69
2018-09-13T02:03:19.356Z,93.40
2018-09-13T02:04:19.584Z,93.21
2018-09-13T02:05:19.814Z,94.07
2018-09-13T02:06:20.041Z,93.59
2018-09-13T02:07:20.271Z,94.17
2018-09-13T02:08:20.500Z,93.30
2018-09-13T02:09:20.727Z,93.59
2018-09-13T02:10:20.957Z,93.59
2018-09-13T02:11:21.179Z,94.07
2018-09-13T02:12:21.406Z,93.49
2018-09-13T02:13:21.637Z,94.07
2018-09-13T02:14:21.866Z,93.98
2018-09-13T02:15:22.096Z,93.88
2018-09-13T02:16:22.324Z,94.07
2018-09-13T02:17:22.562Z,94.07
2018-09-13T02:18:22.778Z,93.93
2018-09-13T02:19:23.001Z,93.88
2018-09-13T02:20:23.237Z,93.93
2018-09-13T02:21:23.464Z,94.26
2018-09-13T02:22:23.693Z,94.26
2018-09-13T02:23:23.928Z,93.88
2018-09-13T02:24:24.152Z,93.49
2018-09-13T02:25:24.381Z,93.88
2018-09-13T02:26:24.610Z,93.88
2018-09-13T02:27:24.840Z,94.17
2018-09-13T02:28:25.068Z,94.12
2018-09-13T02:29:25.294Z,94.17
2018-09-13T02:30:25.526Z,94.02
2018-09-13T02:31:25.752Z,93.98
2018-09-13T02:32:25.975Z,94.07
2018-09-13T02:33:26.205Z,93.30
2018-09-13T02:34:26.445Z,93.44
2018-09-13T02:35:26.661Z,94.12
2018-09-13T02:36:26.891Z,93.93
2018-09-13T02:37:27.110Z,93.73
2018-09-13T02:38:27.335Z,93.88
2018-09-13T02:39:27.562Z,93.93
2018-09-13T02:40:27.792Z,94.02
2018-09-13T02:41:28.021Z,93.93
2018-09-13T02:42:28.244Z,94.31
2018-09-13T02:43:28.466Z,93.93
2018-09-13T02:44:28.701Z,94.21
2018-09-13T02:45:28.931Z,94.12
2018-09-13T02:46:29.159Z,94.21
2018-09-13T02:47:29.388Z,94.12
2018-09-13T02:48:29.628Z,94.31
2018-09-13T02:49:29.856Z,94.02
2018-09-13T02:50:30.074Z,93.63
2018-09-13T02:51:30.305Z,93.54
2018-09-13T02:52:30.536Z,94.31
2018-09-13T02:53:30.760Z,94.21
2018-09-13T02:54:30.989Z,93.73
2018-09-13T02:55:31.215Z,94.21
2018-09-13T02:56:31.441Z,94.31
2018-09-13T02:57:31.669Z,94.40
2018-09-13T02:58:31.893Z,93.26
2018-09-13T02:59:32.122Z,93.63
2018-09-13T03:00:32.359Z,93.93
2018-09-13T03:01:32.582Z,93.63
2018-09-13T03:02:32.810Z,93.68
2018-09-13T03:03:33.039Z,93.54
2018-09-13T03:04:33.272Z,93.73
2018-09-13T03:05:33.503Z,93.63
2018-09-13T03:06:33.729Z,93.73
2018-09-13T03:07:33.958Z,93.63
2018-09-13T03:08:34.185Z,93.93
2018-09-13T03:09:34.416Z,94.31
2018-09-13T03:10:34.647Z,93.93
2018-09-13T03:11:34.874Z,94.21
2018-09-13T03:12:35.109Z,94.31
2018-09-13T03:13:35.333Z,93.73
2018-09-13T03:14:35.563Z,93.93
2018-09-13T03:15:35.798Z,94.12
2018-09-13T03:16:36.023Z,94.21
2018-09-13T03:17:36.246Z,94.02
2018-09-13T03:18:36.478Z,93.93
2018-09-13T03:19:36.706Z,94.21
2018-09-13T03:20:36.936Z,94.31
2018-09-13T03:21:37.166Z,94.21
2018-09-13T03:22:37.395Z,93.54
2018-09-13T03:23:37.632Z,94.40
2018-09-13T03:24:37.857Z,94.40
2018-09-13T03:25:38.082Z,93.73
2018-09-13T03:26:38.313Z,94.21
2018-09-13T03:27:38.540Z,93.73
2018-09-13T03:28:38.769Z,93.93
2018-09-13T03:29:39.006Z,94.35
2018-09-13T03:30:39.226Z,93.73
2018-09-13T03:31:39.471Z,93.54
2018-09-13T03:32:39.689Z,93.54
2018-09-13T03:33:39.928Z,93.44
2018-09-13T03:34:40.170Z,93.93
2018-09-13T03:35:40.389Z,93.83
2018-09-13T03:36:40.724Z,93.88
2018-09-13T03:37:40.826Z,93.35
2018-09-13T03:38:41.055Z,93.26
2018-09-13T03:39:41.284Z,93.35
2018-09-13T03:40:41.515Z,93.35
2018-09-13T03:41:41.747Z,93.73
2018-09-13T03:42:41.975Z,93.35
2018-09-13T03:43:42.203Z,93.93
2018-09-13T03:44:42.431Z,93.83
2018-09-13T03:45:42.663Z,94.02
2018-09-13T03:46:42.895Z,93.35
2018-09-13T03:47:43.126Z,94.31
2018-09-13T03:48:43.355Z,93.35
2018-09-13T03:49:43.595Z,93.83
2018-09-13T03:50:43.819Z,93.93
2018-09-13T03:51:44.048Z,93.54
2018-09-13T03:52:44.287Z,93.73
2018-09-13T03:53:44.503Z,93.35
2018-09-13T03:54:44.731Z,93.83
2018-09-13T03:56:45.197Z,94.31
2018-09-13T03:57:45.427Z,93.54
2018-09-13T03:58:45.657Z,93.63
2018-09-13T03:59:45.886Z,93.73
2018-09-13T04:00:46.106Z,93.73
2018-09-13T04:01:46.330Z,93.93
2018-09-13T04:02:46.557Z,94.21
2018-09-13T04:03:46.800Z,93.54
2018-09-13T04:04:47.025Z,93.93
2018-09-13T04:05:47.260Z,94.21
2018-09-13T04:06:47.485Z,93.63
2018-09-13T04:07:47.716Z,93.83
2018-09-13T04:08:47.942Z,93.73
2018-09-13T04:09:48.176Z,93.54
2018-09-13T04:10:48.406Z,93.54
2018-09-13T04:11:48.632Z,93.83
2018-09-13T04:12:48.865Z,93.54
2018-09-13T04:13:49.089Z,93.93
2018-09-13T04:14:49.361Z,93.83
2018-09-13T04:15:49.552Z,93.35
2018-09-13T04:16:49.778Z,93.54
2018-09-13T04:17:50.012Z,94.02
2018-09-13T04:18:50.326Z,93.35
2018-09-13T04:19:50.465Z,94.02
2018-09-13T04:20:50.692Z,93.83
2018-09-13T04:21:50.922Z,93.35
2018-09-13T04:22:51.155Z,93.73
2018-09-13T04:23:51.378Z,94.12
2018-09-13T04:24:51.600Z,93.35
2018-09-13T04:25:51.833Z,93.73
2018-09-13T04:26:52.061Z,93.35
2018-09-13T04:27:52.290Z,94.02
2018-09-13T04:28:52.519Z,93.35
2018-09-13T04:29:52.752Z,93.35
2018-09-13T04:30:52.976Z,93.73
2018-09-13T04:31:53.204Z,93.54
2018-09-13T04:32:53.447Z,93.54
2018-09-13T04:33:53.671Z,93.93
2018-09-13T04:34:53.895Z,93.35
2018-09-13T04:35:54.288Z,93.26
2018-09-13T04:36:54.353Z,93.63
2018-09-13T04:37:54.584Z,93.63
2018-09-13T04:38:54.814Z,93.44
2018-09-13T04:39:55.044Z,93.35
2018-09-13T04:40:55.262Z,93.54
2018-09-13T04:41:55.492Z,93.30
2018-09-13T04:42:55.721Z,93.35
2018-09-13T04:43:55.950Z,93.63
2018-09-13T04:44:56.201Z,93.26
2018-09-13T04:45:56.429Z,93.83
2018-09-13T04:46:56.654Z,93.63
2018-09-13T04:47:56.884Z,93.63
2018-09-13T04:48:57.162Z,93.49
2018-09-13T04:49:57.342Z,93.40
2018-09-13T04:50:57.570Z,93.30
2018-09-13T04:51:57.807Z,94.02
2018-09-13T04:52:58.027Z,93.88
2018-09-13T04:53:58.257Z,94.07
2018-09-13T04:54:58.492Z,94.02
2018-09-13T04:55:58.720Z,93.30
2018-09-13T04:56:58.948Z,94.07
2018-09-13T04:57:59.182Z,93.40
2018-09-13T04:58:59.405Z,93.30
2018-09-13T04:59:59.641Z,94.07
2018-09-13T05:00:59.857Z,93.59
2018-09-13T05:02:00.090Z,93.40
2018-09-13T05:03:00.314Z,93.49
2018-09-13T05:04:00.541Z,93.78
2018-09-13T05:05:00.769Z,93.88
2018-09-13T05:06:01.000Z,93.30
2018-09-13T05:07:01.227Z,93.98
2018-09-13T05:08:01.456Z,93.49
2018-09-13T05:09:01.678Z,94.07
2018-09-13T05:10:01.950Z,93.88
2018-09-13T05:11:02.135Z,93.40
2018-09-13T05:12:02.364Z,93.98
2018-09-13T05:13:02.594Z,93.40
2018-09-13T05:14:02.822Z,93.11
2018-09-13T05:15:03.051Z,93.49
2018-09-13T05:16:03.283Z,93.69
2018-09-13T05:17:03.516Z,94.07
2018-09-13T05:18:03.745Z,93.78
2018-09-13T05:19:03.976Z,93.40
2018-09-13T05:20:04.209Z,93.49
2018-09-13T05:21:04.435Z,93.40
2018-09-13T05:22:04.665Z,93.78
2018-09-13T05:23:04.896Z,93.49
2018-09-13T05:24:05.127Z,93.40
2018-09-13T05:25:05.355Z,93.30
2018-09-13T05:26:05.585Z,93.78
2018-09-13T05:27:05.814Z,93.98
2018-09-13T05:28:06.041Z,93.30
2018-09-13T05:29:06.273Z,93.30
2018-09-13T05:30:06.502Z,93.54
2018-09-13T05:31:06.732Z,93.40
2018-09-13T05:32:06.962Z,93.40
2018-09-13T05:33:07.199Z,93.59
2018-09-13T05:34:07.424Z,93.21
2018-09-13T05:35:07.653Z,93.78
2018-09-13T05:36:07.882Z,93.69
2018-09-13T05:37:08.113Z,93.30
2018-09-13T05:38:08.342Z,93.30
2018-09-13T05:39:08.572Z,93.40
2018-09-13T05:40:08.801Z,93.30
2018-09-13T05:41:09.025Z,93.30
2018-09-13T05:42:09.253Z,93.78
2018-09-13T05:43:09.481Z,93.11
2018-09-13T05:44:09.713Z,93.83
2018-09-13T05:45:09.937Z,93.49
2018-09-13T05:46:10.173Z,93.49
2018-09-13T05:47:10.403Z,93.49
2018-09-13T05:48:10.632Z,93.30
2018-09-13T05:49:10.861Z,93.54
2018-09-13T05:50:11.093Z,93.11
2018-09-13T05:51:11.357Z,93.44
2018-09-13T05:52:11.550Z,93.73
2018-09-13T05:53:11.784Z,93.73
2018-09-13T05:54:12.008Z,93.54
2018-09-13T05:55:12.233Z,93.35
2018-09-13T05:56:12.469Z,93.59
2018-09-13T05:57:12.696Z,93.44
2018-09-13T05:58:12.926Z,93.26
2018-09-13T05:59:13.150Z,94.12
2018-09-13T06:00:13.418Z,93.16
2018-09-13T06:01:13.666Z,93.83
2018-09-13T06:02:13.844Z,93.26
2018-09-13T06:03:14.074Z,93.26
2018-09-13T06:04:14.303Z,93.54
2018-09-13T06:05:14.532Z,93.73
2018-09-13T06:06:14.763Z,93.26
2018-09-13T06:07:14.999Z,93.44
2018-09-13T06:08:15.223Z,93.16
2018-09-13T06:09:15.453Z,93.44
2018-09-13T06:10:15.684Z,92.97
2018-09-13T06:11:15.915Z,93.73
2018-09-13T06:12:16.144Z,93.44
2018-09-13T06:13:16.374Z,93.06
2018-09-13T06:14:16.607Z,93.06
2018-09-13T06:15:16.840Z,93.73
2018-09-13T06:16:17.066Z,93.06
2018-09-13T06:17:17.293Z,92.97
2018-09-13T06:18:17.525Z,92.87
2018-09-13T06:19:17.751Z,93.06
2018-09-13T06:20:17.987Z,93.16
2018-09-13T06:21:18.207Z,93.54
2018-09-13T06:22:18.432Z,93.26
2018-09-13T06:23:18.664Z,92.97
2018-09-13T06:24:18.895Z,93.73
2018-09-13T06:25:19.116Z,93.35
2018-09-13T06:26:19.350Z,93.06
2018-09-13T06:27:19.578Z,93.44
2018-09-13T06:28:19.809Z,93.16
2018-09-13T06:29:20.047Z,93.26
2018-09-13T06:30:20.267Z,93.35
2018-09-13T06:31:20.497Z,93.35
2018-09-13T06:32:20.720Z,93.06
2018-09-13T06:33:20.952Z,93.16
2018-09-13T06:34:21.187Z,93.54
2018-09-13T06:35:21.413Z,93.16
2018-09-13T06:36:21.673Z,93.44
2018-09-13T06:37:21.872Z,93.44
2018-09-13T06:38:22.146Z,93.44
2018-09-13T06:39:22.337Z,93.44
2018-09-13T06:40:22.564Z,93.83
2018-09-13T06:41:22.792Z,93.40
2018-09-13T06:42:23.027Z,93.01
2018-09-13T06:43:23.252Z,93.21
2018-09-13T06:44:23.482Z,93.01
2018-09-13T06:45:23.717Z,93.49
2018-09-13T06:46:23.948Z,93.30
2018-09-13T06:47:24.179Z,93.40
2018-09-13T06:48:24.455Z,93.30
2018-09-13T06:49:24.633Z,93.40
2018-09-13T06:50:24.872Z,93.30
2018-09-13T06:51:25.092Z,93.21
2018-09-13T06:52:25.325Z,93.49
2018-09-13T06:53:25.562Z,93.49
2018-09-13T06:54:25.777Z,93.30
2018-09-13T06:55:26.009Z,93.30
2018-09-13T06:56:26.240Z,93.30
2018-09-13T06:57:26.468Z,93.49
2018-09-13T06:58:26.695Z,93.21
2018-09-13T06:59:26.923Z,93.11
2018-09-13T07:00:27.158Z,92.91
2018-09-13T07:01:27.381Z,92.63
2018-09-13T07:02:27.632Z,92.77
2018-09-13T07:03:27.841Z,92.63
2018-09-13T07:04:28.073Z,92.58
2018-09-13T07:05:28.301Z,92.48
2018-09-13T07:06:28.530Z,92.68
2018-09-13T07:07:28.763Z,93.06
2018-09-13T07:08:28.993Z,92.68
2018-09-13T07:09:29.224Z,92.77
2018-09-13T07:10:29.453Z,92.63
2018-09-13T07:11:29.683Z,92.58
2018-09-13T07:12:29.914Z,91.96
2018-09-13T07:13:30.143Z,92.05
2018-09-13T07:14:30.376Z,91.96
2018-09-13T07:15:30.605Z,92.14
2018-09-13T07:16:30.836Z,92.05
2018-09-13T07:17:31.070Z,92.63
2018-09-13T07:18:31.301Z,91.47
2018-09-13T07:19:31.523Z,91.38
2018-09-13T07:20:31.754Z,91.61
2018-09-13T07:21:31.994Z,91.33
2018-09-13T07:22:32.210Z,91.52
2018-09-13T07:23:32.497Z,90.84
2018-09-13T07:24:32.672Z,91.04
2018-09-13T07:25:32.904Z,91.13
2018-09-13T07:26:33.130Z,91.23
2018-09-13T07:27:33.361Z,90.94
2018-09-13T07:28:33.592Z,91.23
2018-09-13T07:29:33.821Z,91.13
2018-09-13T07:30:34.048Z,90.94
2018-09-13T07:31:34.280Z,91.23
2018-09-13T07:32:34.512Z,91.33
2018-09-13T07:33:34.745Z,90.94
2018-09-13T07:34:34.978Z,91.33
2018-09-13T07:35:35.209Z,90.75
2018-09-13T07:36:35.439Z,90.75
2018-09-13T07:37:35.667Z,91.13
2018-09-13T07:38:35.898Z,90.84
2018-09-13T07:39:36.123Z,91.33
2018-09-13T07:40:36.345Z,91.04
2018-09-13T07:41:36.572Z,90.94
2018-09-13T07:42:36.855Z,91.13
2018-09-13T07:43:37.034Z,91.13
2018-09-13T07:44:37.261Z,90.75
2018-09-13T07:45:37.494Z,91.18
2018-09-13T07:46:37.727Z,91.18
2018-09-13T07:47:37.954Z,90.80
2018-09-13T07:48:38.187Z,90.60
2018-09-13T07:49:38.499Z,90.03
2018-09-13T07:50:38.650Z,91.08
2018-09-13T07:51:38.874Z,89.74
2018-09-13T07:52:39.108Z,89.74
2018-09-13T07:53:39.336Z,90.31
2018-09-13T07:54:39.565Z,89.74
2018-09-13T07:55:39.849Z,90.12
2018-09-13T07:56:40.028Z,90.60
2018-09-13T07:57:40.259Z,90.70
2018-09-13T07:58:40.492Z,90.45
2018-09-13T07:59:40.721Z,90.55
2018-09-13T08:00:40.948Z,90.94
2018-09-13T08:01:41.186Z,89.98
2018-09-13T08:02:41.412Z,89.88
2018-09-13T08:03:41.643Z,89.98
2018-09-13T08:04:41.874Z,89.78
2018-09-13T08:05:42.103Z,89.69
2018-09-13T08:06:42.336Z,90.03
2018-09-13T08:07:42.570Z,89.93
2018-09-13T08:08:42.797Z,89.83
2018-09-13T08:09:43.028Z,90.07
2018-09-13T08:10:43.256Z,89.64
2018-09-13T08:11:43.529Z,90.26
2018-09-13T08:12:43.715Z,89.59
2018-09-13T08:13:43.950Z,90.26
2018-09-13T08:14:44.174Z,90.26
2018-09-13T08:15:44.410Z,89.69
2018-09-13T08:16:44.636Z,89.98
2018-09-13T08:17:44.867Z,90.31
2018-09-13T08:18:45.324Z,90.03
2018-09-13T08:19:45.326Z,90.07
2018-09-13T08:20:45.561Z,90.07
2018-09-13T08:21:45.842Z,89.88
2018-09-13T08:22:46.011Z,89.50
2018-09-13T08:23:46.244Z,89.78
2018-09-13T08:24:46.474Z,89.88
2018-09-13T08:25:46.715Z,89.78
2018-09-13T08:26:46.934Z,89.98
2018-09-13T08:27:47.169Z,89.88
2018-09-13T08:28:47.398Z,89.88
2018-09-13T08:29:47.624Z,89.88
2018-09-13T08:30:47.855Z,90.45
2018-09-13T08:31:48.085Z,89.69
2018-09-13T08:32:48.320Z,89.78
2018-09-13T08:33:48.547Z,89.50
2018-09-13T08:34:48.791Z,89.69
2018-09-13T08:35:49.010Z,89.78
2018-09-13T08:36:49.267Z,89.74
2018-09-13T08:37:49.474Z,90.07
2018-09-13T08:38:49.700Z,90.03
2018-09-13T08:39:49.961Z,89.88
2018-09-13T08:40:50.161Z,90.26
2018-09-13T08:41:50.394Z,90.26
2018-09-13T08:42:50.624Z,89.78
2018-09-13T08:43:50.853Z,90.07
2018-09-13T08:44:51.086Z,90.17
2018-09-13T08:45:51.316Z,90.12
2018-09-13T08:46:51.544Z,90.03
2018-09-13T08:47:51.777Z,90.22
2018-09-13T08:48:52.006Z,90.26
2018-09-13T08:49:52.237Z,90.36
2018-09-13T08:50:52.468Z,89.98
2018-09-13T08:51:52.737Z,89.88
2018-09-13T08:52:52.927Z,90.07
2018-09-13T08:53:53.164Z,89.69
2018-09-13T08:54:53.390Z,89.50
2018-09-13T08:55:53.623Z,89.59
2018-09-13T08:56:53.852Z,90.26
2018-09-13T08:57:54.088Z,89.50
2018-09-13T08:58:54.316Z,89.98
2018-09-13T08:59:54.547Z,89.88
2018-09-13T09:00:54.779Z,89.78
2018-09-13T09:01:55.009Z,89.69
2018-09-13T09:02:55.238Z,89.88
2018-09-13T09:03:55.470Z,90.26
2018-09-13T09:04:55.701Z,89.78
2018-09-13T09:05:55.947Z,90.26
2018-09-13T09:06:56.164Z,90.07
2018-09-13T09:07:56.395Z,90.07
2018-09-13T09:08:56.627Z,90.26
2018-09-13T09:09:56.860Z,90.26
2018-09-13T09:10:57.090Z,90.75
2018-09-13T09:11:57.331Z,90.07
2018-09-13T09:12:57.549Z,90.36
2018-09-13T09:13:57.781Z,89.98
2018-09-13T09:14:58.016Z,90.26
2018-09-13T09:15:58.240Z,89.78
2018-09-13T09:16:58.475Z,89.78
2018-09-13T09:17:58.704Z,89.88
2018-09-13T09:18:58.931Z,90.36
2018-09-13T09:19:59.164Z,90.07
2018-09-13T09:20:59.396Z,90.26
2018-09-13T09:21:59.631Z,90.75
2018-09-13T09:22:59.857Z,89.88
2018-09-13T09:24:00.102Z,89.40
2018-09-13T09:25:00.327Z,90.21
2018-09-13T09:26:00.557Z,90.07
2018-09-13T09:27:00.787Z,89.69
2018-09-13T09:28:01.017Z,89.59
2018-09-13T09:29:01.280Z,89.98
2018-09-13T09:30:01.477Z,90.12
2018-09-13T09:31:01.710Z,90.12
2018-09-13T09:32:01.946Z,90.12
2018-09-13T09:33:02.171Z,89.25
2018-09-13T09:34:02.404Z,89.44
2018-09-13T09:35:02.680Z,89.64
2018-09-13T09:36:02.865Z,89.35
2018-09-13T09:37:03.095Z,89.92
2018-09-13T09:38:03.326Z,89.35
2018-09-13T09:39:03.558Z,88.91
2018-09-13T09:40:03.791Z,89.10
2018-09-13T09:41:04.022Z,88.53
2018-09-13T09:42:04.252Z,88.53
2018-09-13T09:43:04.488Z,88.53
2018-09-13T09:44:04.724Z,88.91
2018-09-13T09:45:04.952Z,88.62
2018-09-13T09:46:05.183Z,88.43
2018-09-13T09:47:05.416Z,88.62
2018-09-13T09:48:05.695Z,88.14
2018-09-13T09:49:05.879Z,88.62
2018-09-13T09:50:06.160Z,87.56
2018-09-13T09:51:06.338Z,87.46
2018-09-13T09:52:06.636Z,87.80
2018-09-13T09:53:06.803Z,87.80
2018-09-13T09:54:07.036Z,87.32
2018-09-13T09:55:07.269Z,86.93
2018-09-13T09:56:07.501Z,86.98
2018-09-13T09:57:07.730Z,86.78
2018-09-13T09:58:07.959Z,87.22
2018-09-13T09:59:08.193Z,87.12
2018-09-13T10:00:08.424Z,86.65
2018-09-13T10:01:08.655Z,86.55
2018-09-13T10:02:08.888Z,86.88
2018-09-13T10:03:09.178Z,87.36
2018-09-13T10:04:09.352Z,86.01
2018-09-13T10:05:09.589Z,87.12
2018-09-13T10:06:09.818Z,86.74
2018-09-13T10:07:10.055Z,86.74
2018-09-13T10:08:10.283Z,86.74
2018-09-13T10:09:10.718Z,86.98
2018-09-13T10:10:10.797Z,86.78
2018-09-13T10:11:11.032Z,85.82
2018-09-13T10:12:11.263Z,85.34
2018-09-13T10:13:11.496Z,85.91
2018-09-13T10:14:11.755Z,86.01
2018-09-13T10:15:11.979Z,85.72
2018-09-13T10:16:12.235Z,85.72
2018-09-13T10:17:12.428Z,85.96
2018-09-13T10:18:12.662Z,85.38
2018-09-13T10:19:12.892Z,85.67
2018-09-13T10:20:13.126Z,84.80
2018-09-13T10:21:13.359Z,84.70
2018-09-13T10:22:13.591Z,84.22
2018-09-13T10:23:13.824Z,84.80
2018-09-13T10:24:14.058Z,84.42
2018-09-13T10:25:14.293Z,84.12
2018-09-13T10:26:14.524Z,84.61
2018-09-13T10:27:14.760Z,83.78
2018-09-13T10:28:14.992Z,84.03
2018-09-13T10:29:15.270Z,83.59
2018-09-13T10:30:15.460Z,83.69
2018-09-13T10:31:15.695Z,83.20
2018-09-13T10:32:15.926Z,83.01
2018-09-13T10:33:16.161Z,82.92
2018-09-13T10:34:16.392Z,81.95
2018-09-13T10:35:16.627Z,80.69
2018-09-13T10:36:16.858Z,80.69
2018-09-13T10:37:17.095Z,80.64
2018-09-13T10:38:17.326Z,80.74
2018-09-13T10:39:17.559Z,80.39
2018-09-13T10:40:17.796Z,79.91
2018-09-13T10:41:18.030Z,78.85
2018-09-13T10:42:18.266Z,77.98
2018-09-13T10:43:18.498Z,77.98
2018-09-13T10:44:18.731Z,78.08
2018-09-13T10:45:18.963Z,79.27
2018-09-13T10:46:19.199Z,77.63
2018-09-13T10:47:19.463Z,76.63
2018-09-13T10:48:19.668Z,77.50
2018-09-13T10:49:19.901Z,79.04
2018-09-13T10:50:20.165Z,78.23
2018-09-13T10:51:20.369Z,78.91
2018-09-13T10:52:20.694Z,79.64
2018-09-13T10:53:20.837Z,80.31
2018-09-13T10:54:21.091Z,81.66
2018-09-13T10:55:21.352Z,81.57
2018-09-13T10:56:21.537Z,80.99
2018-09-13T10:57:21.770Z,80.69
2018-09-13T10:58:22.004Z,81.12
2018-09-13T10:59:22.238Z,81.66
2018-09-13T11:00:22.473Z,81.09
2018-09-13T11:01:22.708Z,81.27
2018-09-13T11:02:22.943Z,81.66
2018-09-13T11:03:23.179Z,82.05
2018-09-13T11:04:23.439Z,80.99
2018-09-13T11:05:23.645Z,81.76
2018-09-13T11:06:23.881Z,83.01
2018-09-13T11:07:24.118Z,82.14
2018-09-13T11:08:24.346Z,82.72
2018-09-13T11:09:24.582Z,82.24
2018-09-13T11:10:24.838Z,82.87
2018-09-13T11:11:25.074Z,84.12
2018-09-13T11:12:25.280Z,82.78
2018-09-13T11:13:25.512Z,82.78
2018-09-13T11:14:25.748Z,82.78
2018-09-13T11:15:25.983Z,82.39
2018-09-13T11:16:26.217Z,83.07
2018-09-13T11:17:26.449Z,83.26
2018-09-13T11:18:26.684Z,83.88
2018-09-13T11:19:26.920Z,83.78
2018-09-13T11:20:27.153Z,83.40
2018-09-13T11:21:27.384Z,83.26
2018-09-13T11:22:27.619Z,83.16
2018-09-13T11:23:27.856Z,83.07
2018-09-13T11:24:28.088Z,83.55
2018-09-13T11:25:28.316Z,84.03
2018-09-13T11:26:28.550Z,83.74
2018-09-13T11:27:28.784Z,84.18
2018-09-13T11:28:29.017Z,84.18
2018-09-13T11:29:29.251Z,83.94
2018-09-13T11:30:29.520Z,83.99
2018-09-13T11:31:29.715Z,85.05
2018-09-13T11:32:29.949Z,85.24
2018-09-13T11:33:30.181Z,85.05
2018-09-13T11:34:30.417Z,84.86
2018-09-13T11:35:30.648Z,84.95
2018-09-13T11:36:30.879Z,85.05
2018-09-13T11:37:31.111Z,85.05
2018-09-13T11:38:31.376Z,85.14
2018-09-13T11:39:31.666Z,84.76
2018-09-13T11:40:31.982Z,83.89
2018-09-13T11:41:32.045Z,83.99
2018-09-13T11:42:32.278Z,84.28
2018-09-13T11:43:32.510Z,84.66
2018-09-13T11:44:32.744Z,84.86
2018-09-13T11:45:32.976Z,84.61
2018-09-13T11:46:33.214Z,84.95
2018-09-13T11:47:33.442Z,84.76
2018-09-13T11:48:33.673Z,84.47
2018-09-13T11:49:33.906Z,84.56
2018-09-13T11:50:34.136Z,85.30
2018-09-13T11:51:34.373Z,85.72
2018-09-13T11:52:34.605Z,85.10
2018-09-13T11:53:34.834Z,85.39
2018-09-13T11:54:35.068Z,85.39
2018-09-13T11:55:35.301Z,85.39
2018-09-13T11:56:35.532Z,85.34
2018-09-13T11:57:35.768Z,85.53
2018-09-13T11:58:36.000Z,85.63
2018-09-13T11:59:36.236Z,85.53
2018-09-13T12:00:36.468Z,85.47
2018-09-13T12:01:36.701Z,84.22
2018-09-13T12:02:36.935Z,84.12
2018-09-13T12:03:37.169Z,83.89
2018-09-13T12:04:37.407Z,84.66
2018-09-13T12:05:37.643Z,85.82
2018-09-13T12:06:37.865Z,84.56
2018-09-13T12:07:38.096Z,85.05
2018-09-13T12:08:38.328Z,84.86
2018-09-13T12:09:38.629Z,85.24
2018-09-13T12:10:38.799Z,85.14
2018-09-13T12:11:39.032Z,85.82
2018-09-13T12:12:39.262Z,84.95
2018-09-13T12:13:39.545Z,84.95
2018-09-13T12:14:39.727Z,85.05
2018-09-13T12:15:39.960Z,84.56
2018-09-13T12:16:40.193Z,85.34
2018-09-13T12:17:40.424Z,84.86
2018-09-13T12:18:40.659Z,84.38
2018-09-13T12:19:40.889Z,84.95
2018-09-13T12:20:41.122Z,83.94
2018-09-13T12:21:41.356Z,84.61
2018-09-13T12:22:41.595Z,83.74
2018-09-13T12:23:41.819Z,84.32
2018-09-13T12:24:42.051Z,85.09
2018-09-13T12:25:42.286Z,84.03
2018-09-13T12:26:42.518Z,84.03
2018-09-13T12:27:42.748Z,84.22
2018-09-13T12:28:42.981Z,83.94
2018-09-13T12:29:43.213Z,84.12
2018-09-13T12:30:43.446Z,84.12
2018-09-13T12:31:43.678Z,84.03
2018-09-13T12:32:43.940Z,83.84
2018-09-13T12:33:44.162Z,83.45
2018-09-13T12:34:44.376Z,83.84
2018-09-13T12:35:44.609Z,83.55
2018-09-13T12:36:44.845Z,83.64
2018-09-13T12:37:45.077Z,83.16
2018-09-13T12:38:45.312Z,82.43
2018-09-13T12:39:45.543Z,83.20
2018-09-13T12:40:45.776Z,83.11
2018-09-13T12:41:46.010Z,81.95
2018-09-13T12:42:46.242Z,82.14
2018-09-13T12:43:46.482Z,81.76
2018-09-13T12:44:46.708Z,81.85
2018-09-13T12:45:46.948Z,81.85
2018-09-13T12:46:47.165Z,81.57
2018-09-13T12:47:47.397Z,81.85
2018-09-13T12:48:47.631Z,81.09
2018-09-13T12:49:47.904Z,80.99
2018-09-13T12:50:48.098Z,81.22
2018-09-13T12:51:48.334Z,81.76
2018-09-13T12:52:48.562Z,81.47
2018-09-13T12:53:48.796Z,81.85
2018-09-13T12:54:49.027Z,82.72
2018-09-13T12:55:49.261Z,81.66
2018-09-13T12:56:49.566Z,81.95